Aeroporto :
LOGIN :

Iscrizione | Disclaimer

   EN    FR    IT 

 










Sommario :    VFR   VFR Marginale   IFR   IFR Intensivo   IFR Molto Intensivo
Visibilità : 
Base nubi : 
>= 8 km
>= 3000ft
5 / 8 km
1000 / 3000 ft
1500m / 5 km
500 / 1000 ft
800 / 1500m
200 / 500 ft
< 800m
< 200 ft
Simboli :   Temporali  Nebbia  Neve Forte  Precipitazioni Forti  Vento > 20 kt
SIGMETs :   Varie  Temporali  Ghiacco  Turbolenza  Onda orograficha  Ceneri Vulcaniche






- Altitudine del aeroporto : 935 ft


EBFS - Florennes

ULTIMO METAR :
  • 220925Z 20011KT 9999 FEW009 BKN012 15/13 Q1012 GRN GRN

METARs OBSOLETI :
  • 220855Z 20010KT 9999 FEW009 BKN012 15/13 Q1013 GRN GRN
  • 220847Z 20009KT 9999 FEW009 BKN012 15/13 Q1013 GRN GRN
  • 220825Z 20011KT 9999 SCT009 BKN012 14/13 Q1013 GRN GRN TEMPO YLO
  • 220755Z 20010KT 9999 SCT009 BKN012 14/13 Q1012 GRN GRN TEMPO YLO
  • 220725Z 20010KT 9999 SCT009 BKN012 14/12 Q1012 GRN GRN TEMPO YLO
  • 220655Z 20012KT 9999 SCT007 BKN010 14/12 Q1012 GRN GRN TEMPO YLO

TAF COR TAF EBFS
Valido dal 22 a 10 ore il 22 a 19 ore UTC


220841Z 2210/2219 20010G22KT 9999 SCT008 BKN012
PROB30
TEMPO 2210/2212 6000 -RADZ SCT007 BKN010
BECMG 2211/2213 FEW015 BKN025
TEMPO 2212/2219 20015G25KT 4000 -SHRA SCT012TCU BKN020
PROB30
TEMPO 2214/2217 3000 SHRA BKN010CB BKN015



MetMap, La meteo Aeronautica in un colpo d'occhio ! - Copyright ORBIFLY Dicembre 2007 - Disclaimer

ORBIFLY MET'MAP TEAM :

Programmazione e sviluppo : Alexandra Zaïnal
Concezione : Baudouin d'Aumeries
Aiuto per la programmazione : Marc-Olivier Méhu
Supporto tecnico e logistico : Manuel Goepfert
Aiuto per la traduzione : Arnaldo La Scala

Contatto : metmap@orbifly.com




FONTI E CREDITI :

   NOAA